Time;durP1;ratioP1;P1;durP2;ratioP2;P2;SDS_P1;SDS_P2;PMS_P1;PMS_P2;Temp;Humidity;BMP_temperature;BMP_pressure;BME280_temperature;BME280_humidity;BME280_pressure;Samples;Min_cycle;Max_cycle;Signal;HPM_P1;HPM_P2
2020/12/20 00:00:27;;;;;;;36.13;19.37;;;;;;;-0.98;100.00;101483.30;1775659;80;21204;-53
2020/12/20 00:02:56;;;;;;;37.03;19.73;;;;;;;-0.99;100.00;101480.34;1772498;80;21056;-57
2020/12/20 00:05:24;;;;;;;35.75;20.37;;;;;;;-0.99;100.00;101476.50;1773682;80;21054;-53
2020/12/20 00:07:53;;;;;;;33.45;19.05;;;;;;;-0.99;100.00;101477.78;1770028;80;21221;-53
2020/12/20 00:10:21;;;;;;;31.97;19.07;;;;;;;-0.99;100.00;101482.91;1776572;80;21105;-53
2020/12/20 00:12:50;;;;;;;38.23;21.20;;;;;;;-1.00;100.00;101483.36;1771747;80;21376;-56
2020/12/20 00:15:19;;;;;;;38.23;20.45;;;;;;;-0.97;100.00;101490.06;1776209;80;21248;-53
2020/12/20 00:17:51;;;;;;;37.17;20.40;;;;;;;-0.96;100.00;101484.48;1768403;80;20974;-53
2020/12/20 00:20:19;;;;;;;41.55;22.07;;;;;;;-0.95;100.00;101481.02;1768665;80;21172;-54
2020/12/20 00:22:48;;;;;;;36.55;20.90;;;;;;;-0.94;100.00;101478.39;1771749;80;21165;-53
2020/12/20 00:25:16;;;;;;;40.70;20.17;;;;;;;-0.91;100.00;101487.63;1776493;80;21242;-57
2020/12/20 00:27:44;;;;;;;39.73;21.50;;;;;;;-0.90;100.00;101487.57;1773235;80;21207;-54
2020/12/20 00:30:12;;;;;;;39.00;21.68;;;;;;;-0.89;100.00;101485.83;1774591;80;21069;-58
2020/12/20 00:32:40;;;;;;;40.05;21.07;;;;;;;-0.88;100.00;101492.59;1772384;80;21073;-57
2020/12/20 00:35:09;;;;;;;37.95;20.88;;;;;;;-0.87;100.00;101486.56;1777143;80;20999;-54
2020/12/20 00:37:37;;;;;;;36.90;20.92;;;;;;;-0.87;100.00;101488.70;1771366;80;21166;-52
2020/12/20 00:40:06;;;;;;;39.88;21.23;;;;;;;-0.85;100.00;101493.72;1777371;80;21049;-53
2020/12/20 00:42:34;;;;;;;47.38;23.55;;;;;;;-0.86;100.00;101487.78;1773767;80;21184;-53
2020/12/20 00:45:03;;;;;;;42.00;21.02;;;;;;;-0.87;100.00;101486.56;1776524;80;21056;-57
2020/12/20 00:47:31;;;;;;;42.25;22.60;;;;;;;-0.87;100.00;101489.98;1770332;80;21617;-57
2020/12/20 00:49:59;;;;;;;46.33;22.50;;;;;;;-0.87;100.00;101488.70;1770516;80;21213;-56
2020/12/20 00:52:27;;;;;;;48.10;22.00;;;;;;;-0.86;100.00;101486.95;1773206;80;21042;-53
2020/12/20 00:54:57;;;;;;;43.48;22.95;;;;;;;-0.85;100.00;101486.87;1775339;80;21141;-53
2020/12/20 00:57:25;;;;;;;40.60;22.65;;;;;;;-0.82;100.00;101482.05;1741419;80;21177;-57
2020/12/20 00:59:54;;;;;;;41.05;21.95;;;;;;;-0.80;100.00;101481.05;1733903;80;21184;-53
2020/12/20 01:02:22;;;;;;;47.43;23.32;;;;;;;-0.80;100.00;101481.50;1772531;80;21291;-53
2020/12/20 01:04:51;;;;;;;40.35;22.00;;;;;;;-0.82;100.00;101477.75;1767916;80;21173;-58
2020/12/20 01:07:19;;;;;;;44.77;22.55;;;;;;;-0.80;100.00;101475.92;1779278;80;20963;-53
2020/12/20 01:09:50;;;;;;;41.25;21.00;;;;;;;-0.79;100.00;101482.72;1774595;80;21176;-53
2020/12/20 01:12:18;;;;;;;44.38;23.27;;;;;;;-0.76;100.00;101479.16;1772696;80;21077;-57
2020/12/20 01:15:06;;;;;;;45.43;25.08;;;;;;;-0.74;100.00;101477.35;1770157;80;21315;-56
2020/12/20 01:17:37;;;;;;;49.85;26.95;;;;;;;-0.71;100.00;101478.94;1774932;80;21003;-52
2020/12/20 01:20:07;;;;;;;49.50;28.77;;;;;;;-0.69;100.00;101479.67;1773802;80;21602;-58
2020/12/20 01:22:36;;;;;;;52.50;27.77;;;;;;;-0.69;100.00;101479.67;1767954;80;21105;-57
2020/12/20 01:25:05;;;;;;;76.15;37.65;;;;;;;-0.67;100.00;101481.71;1762301;80;21173;-58
2020/12/20 01:27:33;;;;;;;85.00;44.53;;;;;;;-0.65;100.00;101479.42;1775301;80;21216;-53
2020/12/20 01:30:01;;;;;;;62.38;31.82;;;;;;;-0.64;100.00;101481.55;1773635;80;21136;-58
2020/12/20 01:32:30;;;;;;;60.78;30.70;;;;;;;-0.63;100.00;101480.18;1775515;80;21117;-53
2020/12/20 01:35:00;;;;;;;55.78;27.95;;;;;;;-0.63;100.00;101482.74;1773231;80;21160;-58
2020/12/20 01:37:31;;;;;;;51.40;25.15;;;;;;;-0.59;100.00;101480.84;1776397;80;21077;-54
2020/12/20 01:40:00;;;;;;;37.63;20.95;;;;;;;-0.59;100.00;101485.97;1769511;80;21143;-58
2020/12/20 01:42:29;;;;;;;37.90;20.88;;;;;;;-0.58;100.00;101483.77;1771212;80;21125;-54
2020/12/20 01:44:57;;;;;;;41.08;21.35;;;;;;;-0.56;100.00;101485.81;1762702;80;21002;-54
2020/12/20 01:47:31;;;;;;;43.38;22.58;;;;;;;-0.57;100.00;101490.11;1776865;80;21137;-54
2020/12/20 01:50:03;;;;;;;35.95;19.30;;;;;;;-0.56;100.00;101494.31;1771855;80;21169;-57
2020/12/20 01:52:32;;;;;;;38.05;21.65;;;;;;;-0.55;100.00;101485.72;1764514;80;21253;-58
2020/12/20 01:55:01;;;;;;;43.92;22.52;;;;;;;-0.55;100.00;101484.44;1768872;80;21140;-58
2020/12/20 01:57:31;;;;;;;38.65;18.73;;;;;;;-0.54;100.00;101482.24;1770244;80;21129;-58
2020/12/20 02:00:09;;;;;;;37.13;17.97;;;;;;;-0.51;100.00;101478.24;1837788;76;22706;-52
2020/12/20 02:02:45;;;;;;;38.73;20.12;;;;;;;-0.56;100.00;101480.69;1790092;78;21013;-53
2020/12/20 02:05:15;;;;;;;38.48;20.90;;;;;;;-0.58;100.00;101482.49;1777070;80;21351;-53
2020/12/20 02:07:43;;;;;;;41.05;21.30;;;;;;;-0.58;100.00;101480.75;1745024;80;21077;-53
2020/12/20 02:10:12;;;;;;;38.53;19.45;;;;;;;-0.57;100.00;101482.86;1736172;80;20998;-53
2020/12/20 02:12:41;;;;;;;38.98;19.23;;;;;;;-0.55;100.00;101485.72;1727910;80;21053;-58
2020/12/20 02:15:13;;;;;;;36.17;18.32;;;;;;;-0.54;100.00;101486.09;1780062;80;20996;-56
2020/12/20 02:17:41;;;;;;;33.30;18.55;;;;;;;-0.51;100.00;101489.77;1774749;80;21295;-57
2020/12/20 02:20:11;;;;;;;35.58;20.00;;;;;;;-0.53;100.00;101485.63;1780680;80;20969;-57
2020/12/20 02:23:04;;;;;;;35.10;18.67;;;;;;;-0.49;100.00;101484.59;1883453;75;21999;-57
2020/12/20 02:25:34;;;;;;;41.88;21.15;;;;;;;-0.54;100.00;101490.38;1847657;77;20909;-52
2020/12/20 02:28:03;;;;;;;39.23;19.40;;;;;;;-0.55;100.00;101487.46;1840892;77;21213;-52
2020/12/20 02:30:34;;;;;;;36.95;19.95;;;;;;;-0.56;100.00;101490.48;1846704;77;21014;-53
2020/12/20 02:33:04;;;;;;;39.83;21.62;;;;;;;-0.56;100.00;101494.78;1847468;77;21037;-57
2020/12/20 02:35:32;;;;;;;35.80;18.75;;;;;;;-0.58;100.00;101492.73;1812411;77;20951;-53
2020/12/20 02:38:01;;;;;;;42.95;22.32;;;;;;;-0.59;100.00;101493.19;1843922;77;20907;-52
2020/12/20 02:40:29;;;;;;;40.92;21.65;;;;;;;-0.60;100.00;101495.84;1845728;77;21094;-52
2020/12/20 02:42:59;;;;;;;44.58;21.73;;;;;;;-0.62;100.00;101488.69;1797691;77;21152;-53
2020/12/20 02:45:27;;;;;;;39.48;21.75;;;;;;;-0.64;100.00;101490.52;1846773;77;20998;-53
2020/12/20 02:47:56;;;;;;;39.58;20.23;;;;;;;-0.65;100.00;101490.94;1841631;77;20927;-54
2020/12/20 02:50:27;;;;;;;41.68;22.27;;;;;;;-0.67;100.00;101493.23;1844802;77;21010;-57
2020/12/20 02:52:56;;;;;;;44.10;21.57;;;;;;;-0.68;100.00;101493.69;1837215;77;21286;-57
2020/12/20 02:55:26;;;;;;;44.10;20.92;;;;;;;-0.67;100.00;101491.95;1844441;77;21024;-53
2020/12/20 02:57:56;;;;;;;42.65;22.13;;;;;;;-0.65;100.00;101493.96;1815038;77;21013;-53
2020/12/20 03:00:26;;;;;;;44.70;22.45;;;;;;;-0.64;100.00;101492.62;1842138;77;21073;-58
2020/12/20 03:02:56;;;;;;;46.13;23.15;;;;;;;-0.63;100.00;101491.70;1846238;77;21171;-57
2020/12/20 03:05:24;;;;;;;57.65;27.22;;;;;;;-0.61;100.00;101492.89;1849054;77;21184;-58
2020/12/20 03:07:54;;;;;;;54.35;29.12;;;;;;;-0.59;100.00;101497.03;1840886;77;21681;-57
2020/12/20 03:10:24;;;;;;;78.97;36.17;;;;;;;-0.58;100.00;101505.55;1844311;77;21128;-57
2020/12/20 03:12:53;;;;;;;75.35;35.65;;;;;;;-0.61;100.00;101497.55;1840610;77;20923;-53
2020/12/20 03:15:22;;;;;;;56.15;27.32;;;;;;;-0.60;100.00;101501.80;1849562;77;21107;-53
2020/12/20 03:17:51;;;;;;;50.67;24.35;;;;;;;-0.58;100.00;101499.96;1812709;77;21150;-56
2020/12/20 03:20:20;;;;;;;41.68;21.90;;;;;;;-0.58;100.00;101503.80;1845292;77;21013;-57
2020/12/20 03:22:48;;;;;;;45.85;23.05;;;;;;;-0.61;100.00;101500.11;1839699;77;20927;-56
2020/12/20 03:25:34;;;;;;;43.52;22.17;;;;;;;-0.61;100.00;101507.80;1846006;77;20907;-57
2020/12/20 03:28:26;;;;;;;41.27;21.80;;;;;;;-0.55;100.00;101506.67;1839330;76;22241;-57
2020/12/20 03:30:58;;;;;;;47.03;23.35;;;;;;;-0.59;100.00;101513.68;1810871;77;21026;-53
2020/12/20 03:33:36;;;;;;;47.30;22.20;;;;;;;-0.55;100.00;101515.63;1880564;76;22069;-53
2020/12/20 03:36:07;;;;;;;44.08;21.93;;;;;;;-0.60;100.00;101513.77;1845020;77;20919;-56
2020/12/20 03:38:35;;;;;;;47.13;24.32;;;;;;;-0.60;100.00;101509.94;1859076;77;21223;-53
2020/12/20 03:41:09;;;;;;;39.53;20.72;;;;;;;-0.60;100.00;101508.20;1852499;77;21000;-57
2020/12/20 03:43:39;;;;;;;39.80;20.85;;;;;;;-0.59;100.00;101514.14;1847429;77;21554;-52
2020/12/20 03:46:08;;;;;;;43.73;22.05;;;;;;;-0.57;100.00;101520.84;1852611;77;20930;-53
2020/12/20 03:48:40;;;;;;;42.40;20.75;;;;;;;-0.56;100.00;101514.81;1851848;77;20990;-58
2020/12/20 03:51:10;;;;;;;38.35;20.75;;;;;;;-0.56;100.00;101518.65;1850096;77;22084;-53
2020/12/20 03:53:40;;;;;;;46.92;21.87;;;;;;;-0.56;100.00;101521.67;1856196;77;21033;-56
2020/12/20 03:56:10;;;;;;;41.75;20.90;;;;;;;-0.57;100.00;101526.39;1856044;77;20997;-57
2020/12/20 03:58:48;;;;;;;40.77;21.40;;;;;;;-0.53;100.00;101522.77;1866216;76;22695;-56
2020/12/20 04:01:17;;;;;;;42.20;21.25;;;;;;;-0.58;100.00;101524.30;1845021;77;20958;-54
2020/12/20 04:03:45;;;;;;;41.90;21.37;;;;;;;-0.58;100.00;101525.57;1856285;77;21182;-53
2020/12/20 04:06:14;;;;;;;38.60;21.60;;;;;;;-0.56;100.00;101529.35;1854041;77;20990;-56
2020/12/20 04:08:42;;;;;;;42.73;23.30;;;;;;;-0.53;100.00;101531.73;1854079;77;21001;-56
2020/12/20 04:11:20;;;;;;;42.23;24.37;;;;;;;-0.47;100.00;101540.38;1871429;76;22351;-54
2020/12/20 04:13:49;;;;;;;45.48;24.37;;;;;;;-0.52;100.00;101539.80;1805612;79;20947;-52
2020/12/20 04:16:18;;;;;;;44.25;24.35;;;;;;;-0.50;100.00;101542.64;1779329;80;21209;-52
2020/12/20 04:18:46;;;;;;;46.45;24.40;;;;;;;-0.51;100.00;101540.17;1799772;79;21002;-52
2020/12/20 04:21:16;;;;;;;42.65;20.60;;;;;;;-0.50;100.00;101549.50;1801805;78;21026;-58
2020/12/20 04:23:45;;;;;;;42.13;23.45;;;;;;;-0.50;100.00;101546.94;1787636;80;20974;-59
2020/12/20 04:26:23;;;;;;;44.53;23.53;;;;;;;-0.51;100.00;101545.30;1869628;76;22069;-57
2020/12/20 04:29:02;;;;;;;44.60;22.40;;;;;;;-0.57;100.00;101545.17;1796137;77;20954;-52
2020/12/20 04:31:31;;;;;;;41.60;22.80;;;;;;;-0.58;100.00;101549.08;1814241;77;21570;-55
2020/12/20 04:34:00;;;;;;;50.55;26.48;;;;;;;-0.59;100.00;101552.55;1781130;78;21014;-55
2020/12/20 04:36:29;;;;;;;48.38;25.60;;;;;;;-0.60;100.00;101556.85;1764409;79;20958;-58
2020/12/20 04:38:59;;;;;;;53.42;27.15;;;;;;;-0.59;100.00;101555.11;1766108;79;21088;-57
2020/12/20 04:41:28;;;;;;;54.38;27.93;;;;;;;-0.60;100.00;101558.59;1770220;79;21065;-53
2020/12/20 04:43:58;;;;;;;49.80;26.10;;;;;;;-0.59;100.00;101562.80;1766905;79;21447;-57
2020/12/20 04:46:27;;;;;;;52.23;26.55;;;;;;;-0.58;100.00;101564.44;1770392;79;21092;-57
2020/12/20 04:49:05;;;;;;;42.07;22.57;;;;;;;-0.53;100.00;101565.87;1867182;76;22394;-57
2020/12/20 04:51:36;;;;;;;48.15;23.87;;;;;;;-0.54;100.00;101573.63;1839691;77;20918;-57
2020/12/20 04:54:04;;;;;;;49.23;23.32;;;;;;;-0.53;100.00;101569.72;1851303;77;21184;-52
2020/12/20 04:56:36;;;;;;;47.30;25.37;;;;;;;-0.53;100.00;101575.27;1821758;77;20953;-58
2020/12/20 04:59:14;;;;;;;48.13;26.23;;;;;;;-0.48;100.00;101568.66;1871918;75;22502;-58
2020/12/20 05:01:44;;;;;;;51.02;27.15;;;;;;;-0.54;100.00;101568.05;1835394;77;21045;-54
2020/12/20 05:04:14;;;;;;;51.13;28.73;;;;;;;-0.53;100.00;101580.39;1841149;77;21338;-54
2020/12/20 05:06:43;;;;;;;53.40;28.77;;;;;;;-0.53;100.00;101585.52;1829228;77;20966;-55
2020/12/20 05:09:13;;;;;;;51.45;27.42;;;;;;;-0.54;100.00;101583.41;1836515;77;21053;-58
2020/12/20 05:11:44;;;;;;;55.40;30.30;;;;;;;-0.55;100.00;101577.09;1832635;77;20965;-56
2020/12/20 05:14:14;;;;;;;55.20;30.02;;;;;;;-0.54;100.00;101581.30;1833969;77;21010;-56
2020/12/20 05:16:53;;;;;;;52.47;28.93;;;;;;;-0.51;100.00;101585.81;1804948;76;22854;-59
2020/12/20 05:19:31;;;;;;;56.10;30.80;;;;;;;-0.55;100.00;101589.91;1766513;80;20887;-56
2020/12/20 05:22:22;;;;;;;60.85;32.30;;;;;;;-0.55;100.00;101590.73;1732644;80;21371;-57
2020/12/20 05:24:51;;;;;;;59.83;31.77;;;;;;;-0.55;100.00;101592.00;1765984;80;21028;-56
2020/12/20 05:27:29;;;;;;;53.75;27.07;;;;;;;-0.53;100.00;101597.03;1770180;80;21123;-53
2020/12/20 05:30:15;;;;;;;58.13;30.57;;;;;;;-0.54;100.00;101595.39;1772847;80;21009;-54
2020/12/20 05:33:08;;;;;;;54.50;31.27;;;;;;;-0.50;100.00;101596.42;1830018;76;22334;-57
2020/12/20 05:35:38;;;;;;;53.68;28.35;;;;;;;-0.54;100.00;101603.08;1801883;78;21561;-57
2020/12/20 05:38:06;;;;;;;65.35;35.05;;;;;;;-0.53;100.00;101609.84;1805715;79;21190;-54
2020/12/20 05:40:35;;;;;;;68.67;36.00;;;;;;;-0.53;100.00;101608.56;1806871;78;21053;-58
2020/12/20 05:43:11;;;;;;;106.92;51.50;;;;;;;-0.54;100.00;101606.91;1799715;78;21609;-54
2020/12/20 05:45:41;;;;;;;91.67;42.83;;;;;;;-0.53;100.00;101611.12;1808519;78;21061;-54
2020/12/20 05:48:20;;;;;;;78.78;38.13;;;;;;;-0.53;100.00;101609.84;1744079;79;21713;-55
2020/12/20 05:50:58;;;;;;;82.12;39.45;;;;;;;-0.52;100.00;101614.08;1806497;78;21277;-55
2020/12/20 05:53:30;;;;;;;58.45;34.10;;;;;;;-0.51;100.00;101610.61;1809391;78;21023;-55
2020/12/20 05:55:59;;;;;;;62.62;31.85;;;;;;;-0.50;100.00;101614.81;1797475;78;20969;-58
2020/12/20 05:58:28;;;;;;;57.27;31.85;;;;;;;-0.51;100.00;101610.16;1805999;78;20950;-55
2020/12/20 06:00:56;;;;;;;55.15;30.43;;;;;;;-0.48;100.00;101616.03;1809741;78;21140;-58
2020/12/20 06:03:24;;;;;;;63.13;34.83;;;;;;;-0.45;100.00;101621.01;1806817;78;21322;-55
2020/12/20 06:05:53;;;;;;;67.20;33.92;;;;;;;-0.45;100.00;101615.43;1790848;78;20990;-58
2020/12/20 06:08:22;;;;;;;63.25;33.20;;;;;;;-0.44;100.00;101615.80;1813405;78;20976;-55
2020/12/20 06:10:52;;;;;;;65.83;32.83;;;;;;;-0.41;100.00;101620.77;1747187;81;21056;-55
2020/12/20 06:13:22;;;;;;;;;;;;;;;-0.39;100.00;101616.37;1753955;81;21827;-58
2020/12/20 06:15:57;;;;;;;61.35;31.40;;;;;;;-0.38;100.00;101622.32;1742694;81;22228;-58
2020/12/20 06:18:28;;;;;;;72.87;37.60;;;;;;;-0.40;100.00;101627.54;1797658;79;21171;-56
2020/12/20 06:21:02;;;;;;;67.35;38.98;;;;;;;-0.39;100.00;101627.91;1782477;79;21147;-57
2020/12/20 06:23:34;;;;;;;65.30;37.05;;;;;;;-0.36;100.00;101635.89;1807098;79;21204;-57
2020/12/20 06:26:26;;;;;;;63.60;33.40;;;;;;;-0.34;100.00;101634.92;1800216;79;21018;-58
2020/12/20 06:28:54;;;;;;;60.30;31.65;;;;;;;-0.32;100.00;101642.06;1736271;81;21372;-57
2020/12/20 06:31:23;;;;;;;45.45;25.75;;;;;;;-0.31;100.00;101639.86;1690172;84;21081;-54
2020/12/20 06:33:51;;;;;;;51.55;25.52;;;;;;;-0.30;100.00;101638.98;1691144;83;21000;-58
2020/12/20 06:36:19;;;;;;;48.28;24.57;;;;;;;-0.28;100.00;101644.02;1700769;83;21082;-54
2020/12/20 06:38:54;;;;;;;36.68;20.60;;;;;;;-0.27;100.00;101640.53;1671150;85;21166;-58
2020/12/20 06:41:37;;;;;;;48.80;23.73;;;;;;;-0.26;100.00;101640.93;1711307;82;21216;-54
2020/12/20 06:44:14;;;;;;;37.88;19.37;;;;;;;-0.25;100.00;101638.73;1669313;85;21180;-58
2020/12/20 06:46:43;;;;;;;35.78;19.20;;;;;;;-0.23;100.00;101638.64;1713851;82;21493;-58
2020/12/20 06:49:35;;;;;;;43.48;23.12;;;;;;;-0.23;100.00;101638.19;1669506;84;21123;-59
2020/12/20 06:52:24;;;;;;;42.73;22.95;;;;;;;-0.24;100.00;101635.26;1679021;84;21182;-59
2020/12/20 06:55:14;;;;;;;41.85;22.10;;;;;;;-0.23;100.00;101632.23;1700368;83;21386;-59
2020/12/20 06:58:12;;;;;;;39.48;21.93;;;;;;;-0.21;100.00;101632.55;1714508;82;21520;-58
2020/12/20 07:03:38;;;;;;;37.27;19.30;;;;;;;-0.13;100.00;101629.58;1899990;74;22478;-56
2020/12/20 07:06:13;;;;;;;36.48;19.52;;;;;;;-0.16;100.00;101628.00;1878045;75;21586;-57
2020/12/20 07:08:43;;;;;;;32.50;18.50;;;;;;;-0.15;100.00;101629.67;1880066;75;21140;-56
2020/12/20 07:11:22;;;;;;;34.03;18.23;;;;;;;-0.14;100.00;101636.45;1836407;75;21095;-58
2020/12/20 07:13:51;;;;;;;35.23;17.48;;;;;;;-0.13;100.00;101630.41;1837876;77;21837;-59
2020/12/20 07:16:21;;;;;;;32.40;18.10;;;;;;;-0.11;100.00;101639.31;1838378;76;21428;-56
2020/12/20 07:19:05;;;;;;;33.48;18.07;;;;;;;-0.11;100.00;101643.16;1810248;77;21005;-59
2020/12/20 07:21:41;;;;;;;30.30;16.65;;;;;;;-0.08;100.00;101637.84;1837918;77;21357;-57
2020/12/20 07:24:17;;;;;;;27.73;16.50;;;;;;;-0.05;100.00;101646.66;1829413;77;21029;-58
2020/12/20 07:26:47;;;;;;;34.85;18.00;;;;;;;-0.03;100.00;101643.58;1818736;78;21002;-55
2020/12/20 07:29:15;;;;;;;34.58;16.85;;;;;;;0.00;100.00;101644.70;1843920;77;21180;-58
2020/12/20 07:31:45;;;;;;;29.87;17.80;;;;;;;0.02;100.00;101639.48;1796015;78;21622;-60
2020/12/20 07:34:13;;;;;;;39.75;20.72;;;;;;;0.02;100.00;101641.59;1828799;77;21361;-60
2020/12/20 07:36:42;;;;;;;30.08;16.12;;;;;;;0.05;100.00;101636.77;1803682;78;20919;-58
2020/12/20 07:39:10;;;;;;;32.48;17.17;;;;;;;0.11;100.00;101636.42;1814264;78;20951;-57
2020/12/20 07:41:38;;;;;;;35.68;19.80;;;;;;;0.15;100.00;101625.95;1819752;78;21091;-58
2020/12/20 07:44:07;;;;;;;35.85;18.17;;;;;;;0.22;100.00;101627.25;1813236;78;21021;-59
2020/12/20 07:46:36;;;;;;;36.30;19.20;;;;;;;0.30;100.00;101625.55;1818602;78;21444;-58
2020/12/20 07:49:07;;;;;;;41.18;21.75;;;;;;;0.37;100.00;101629.90;1818568;78;21148;-59
2020/12/20 07:51:36;;;;;;;43.87;20.90;;;;;;;0.42;100.00;101639.47;1813997;78;20991;-59
2020/12/20 07:54:12;;;;;;;38.85;20.85;;;;;;;0.47;100.00;101642.61;1822248;78;21108;-60
2020/12/20 07:56:47;;;;;;;39.90;21.57;;;;;;;0.52;100.00;101636.75;1820521;78;21360;-59
2020/12/20 07:59:17;;;;;;;28.25;15.13;;;;;;;0.56;100.00;101634.39;1811917;78;21372;-60
2020/12/20 08:01:48;;;;;;;28.12;15.53;;;;;;;0.60;100.00;101633.77;1818504;78;25215;-60
2020/12/20 08:06:54;;;;;;;32.43;17.40;;;;;;;0.65;100.00;101630.52;1823945;76;22400;-59
2020/12/20 08:09:25;;;;;;;29.95;17.60;;;;;;;0.60;100.00;101632.02;1780625;80;21032;-60
2020/12/20 08:11:54;;;;;;;34.45;18.57;;;;;;;0.64;100.00;101634.79;1780972;79;21213;-61
2020/12/20 08:14:23;;;;;;;32.60;18.40;;;;;;;0.69;100.00;101626.40;1773510;80;21021;-57
2020/12/20 08:16:52;;;;;;;27.00;15.85;;;;;;;0.77;100.00;101630.28;1778191;79;21009;-63
2020/12/20 08:19:26;;;;;;;34.20;17.60;;;;;;;0.80;100.00;101628.83;1771062;80;20974;-64
2020/12/20 08:22:06;;;;;;;32.80;18.02;;;;;;;0.83;100.00;101627.34;1771501;80;20934;-66
2020/12/20 08:24:37;;;;;;;31.37;18.00;;;;;;;0.87;100.00;101622.41;1764356;80;21360;-67
2020/12/20 08:27:26;;;;;;;33.75;17.82;;;;;;;0.90;100.00;101624.81;1766820;80;22020;-66
2020/12/20 08:30:01;;;;;;;32.10;16.62;;;;;;;0.90;100.00;101631.23;1760440;80;20957;-67
2020/12/20 08:32:37;;;;;;;29.63;15.48;;;;;;;0.88;100.00;101626.19;1774287;80;21030;-67
2020/12/20 08:35:22;;;;;;;35.90;18.80;;;;;;;0.88;100.00;101624.09;1776385;80;21437;-67
2020/12/20 08:40:36;;;;;;;32.97;18.63;;;;;;;0.89;100.00;101616.28;1871007;74;21921;-59
2020/12/20 08:43:04;;;;;;;31.85;17.45;;;;;;;0.87;100.00;101622.41;1834454;77;20954;-59
2020/12/20 08:45:32;;;;;;;29.63;17.02;;;;;;;0.85;100.00;101617.38;1825940;77;21268;-62
2020/12/20 08:48:04;;;;;;;38.73;19.70;;;;;;;0.84;100.00;101618.30;1826453;77;20983;-61
2020/12/20 08:50:32;;;;;;;33.83;18.12;;;;;;;0.84;100.00;101618.30;1833811;77;21007;-61
2020/12/20 08:53:07;;;;;;;35.08;17.55;;;;;;;0.86;100.00;101619.48;1833124;77;21390;-61
2020/12/20 08:55:35;;;;;;;34.53;19.50;;;;;;;0.85;100.00;101616.09;1830857;77;20923;-61
2020/12/20 08:58:07;;;;;;;32.65;18.67;;;;;;;0.86;100.00;101622.88;1829040;77;21195;-61
2020/12/20 09:00:36;;;;;;;37.25;19.57;;;;;;;0.88;100.00;101622.80;1788026;80;21540;-62
2020/12/20 09:03:06;;;;;;;36.25;19.75;;;;;;;0.89;100.00;101618.03;1776614;79;21077;-61
2020/12/20 09:05:35;;;;;;;34.33;19.20;;;;;;;0.91;100.00;101620.89;1772626;79;21073;-61
2020/12/20 09:08:05;;;;;;;36.08;18.17;;;;;;;0.94;100.00;101616.02;1777170;79;21806;-61
2020/12/20 09:10:34;;;;;;;32.85;18.60;;;;;;;0.95;100.00;101615.12;1774977;79;21089;-65
2020/12/20 09:13:05;;;;;;;42.23;21.77;;;;;;;0.95;100.00;101618.98;1773571;79;21126;-60
2020/12/20 09:15:35;;;;;;;36.73;19.05;;;;;;;0.95;100.00;101613.38;1773126;79;20975;-64
2020/12/20 09:20:58;;;;;;;33.60;18.40;;;;;;;0.99;100.00;101612.75;1875133;76;22756;-60
2020/12/20 09:23:26;;;;;;;37.17;20.92;;;;;;;0.94;100.00;101619.87;1815635;78;20966;-61
2020/12/20 09:26:00;;;;;;;33.92;17.48;;;;;;;0.96;100.00;101615.03;1792402;78;21137;-59
2020/12/20 09:28:33;;;;;;;34.08;18.07;;;;;;;1.03;100.00;101612.13;1788742;78;20926;-62
2020/12/20 09:31:01;;;;;;;37.65;19.57;;;;;;;1.08;100.00;101609.64;1777131;80;20997;-59
2020/12/20 09:33:32;;;;;;;32.83;18.48;;;;;;;1.12;100.00;101605.16;1789701;80;21589;-63
2020/12/20 09:36:06;;;;;;;32.95;16.93;;;;;;;1.17;100.00;101608.28;1792653;78;21550;-63
2020/12/20 09:38:48;;;;;;;37.78;19.70;;;;;;;1.21;100.00;101608.03;1805658;78;21336;-59
2020/12/20 09:41:19;;;;;;;;;;;;;;;1.23;100.00;101607.94;1795230;79;20938;-63
2020/12/20 09:43:48;;;;;;;40.90;21.35;;;;;;;1.26;100.00;101599.23;1789373;79;20163;-65
2020/12/20 09:46:35;;;;;;;38.30;19.55;;;;;;;1.26;100.00;101605.19;1792128;80;21006;-59
2020/12/20 09:49:04;;;;;;;43.98;21.75;;;;;;;1.25;100.00;101597.55;1808900;79;21045;-58
2020/12/20 09:51:35;;;;;;;37.70;20.60;;;;;;;1.24;100.00;101597.20;1817435;78;21195;-63
2020/12/20 09:54:03;;;;;;;38.60;19.17;;;;;;;1.24;100.00;101600.59;1822674;78;21132;-62
2020/12/20 09:56:31;;;;;;;41.30;22.02;;;;;;;1.21;100.00;101593.91;1816008;78;20966;-63
2020/12/20 09:58:59;;;;;;;40.15;21.75;;;;;;;1.20;100.00;101593.98;1816519;78;20962;-62
2020/12/20 10:01:27;;;;;;;39.58;20.82;;;;;;;1.21;100.00;101588.77;1800473;78;21253;-60
2020/12/20 10:03:56;;;;;;;40.83;22.02;;;;;;;1.19;100.00;101598.75;1777938;80;21200;-59
2020/12/20 10:06:24;;;;;;;36.38;20.15;;;;;;;1.17;100.00;101600.11;1816002;78;21434;-59
2020/12/20 10:08:52;;;;;;;34.20;18.90;;;;;;;1.18;100.00;101592.80;1821656;78;21132;-64
2020/12/20 10:11:21;;;;;;;37.40;21.10;;;;;;;1.20;100.00;101593.52;1784437;80;21062;-63
2020/12/20 10:13:51;;;;;;;39.58;20.37;;;;;;;1.23;100.00;101592.98;1793373;78;25689;-64
2020/12/20 10:16:20;;;;;;;33.08;17.70;;;;;;;1.26;100.00;101587.67;1791688;80;21214;-62
2020/12/20 10:18:48;;;;;;;33.55;19.77;;;;;;;1.32;100.00;101584.27;1790736;80;21045;-65
2020/12/20 10:21:16;;;;;;;37.70;20.70;;;;;;;1.37;100.00;101592.55;1786375;79;21018;-60
2020/12/20 10:23:46;;;;;;;33.53;20.12;;;;;;;1.42;100.00;101587.95;1788226;80;21203;-59
2020/12/20 10:26:15;;;;;;;30.82;17.00;;;;;;;1.46;100.00;101582.17;1793717;78;21136;-63
2020/12/20 10:28:44;;;;;;;31.10;17.57;;;;;;;1.44;100.00;101586.59;1760144;79;21396;-63
2020/12/20 10:31:20;;;;;;;28.98;16.90;;;;;;;1.39;100.00;101582.98;1784792;80;21049;-59
2020/12/20 10:33:49;;;;;;;31.97;18.45;;;;;;;1.40;100.00;101583.81;1795316;78;20990;-59
2020/12/20 10:36:17;;;;;;;30.82;17.70;;;;;;;1.40;100.00;101583.81;1784130;80;21081;-59
2020/12/20 10:38:45;;;;;;;29.65;17.40;;;;;;;1.43;100.00;101585.73;1776983;78;21204;-59
2020/12/20 10:41:16;;;;;;;29.82;17.65;;;;;;;1.45;100.00;101579.24;1816559;78;21385;-59
2020/12/20 10:43:44;;;;;;;33.88;19.55;;;;;;;1.49;100.00;101579.89;1816797;78;21171;-60
2020/12/20 10:46:12;;;;;;;30.00;17.98;;;;;;;1.51;100.00;101582.71;1798365;78;21010;-60
2020/12/20 10:48:41;;;;;;;38.40;20.57;;;;;;;1.47;100.00;101578.67;1785638;78;21226;-60
2020/12/20 10:51:10;;;;;;;32.10;17.62;;;;;;;1.43;100.00;101575.92;1786883;78;21153;-58
2020/12/20 10:53:38;;;;;;;36.53;18.25;;;;;;;1.42;100.00;101580.70;1788782;79;21387;-63
2020/12/20 10:56:07;;;;;;;36.20;19.70;;;;;;;1.38;100.00;101574.92;1758571;79;21033;-63
2020/12/20 10:58:35;;;;;;;33.95;16.48;;;;;;;1.34;100.00;101578.59;1755773;79;21180;-64
2020/12/20 11:01:04;;;;;;;28.25;14.65;;;;;;;1.33;100.00;101579.98;1785160;78;21178;-64
2020/12/20 11:03:32;;;;;;;29.15;15.70;;;;;;;1.32;100.00;101582.16;1796172;78;21100;-64
2020/12/20 11:06:00;;;;;;;29.67;15.38;;;;;;;1.29;100.00;101577.19;1785903;79;21363;-64
2020/12/20 11:08:28;;;;;;;34.85;17.25;;;;;;;1.26;100.00;101573.08;1773381;79;21137;-60
2020/12/20 11:10:56;;;;;;;45.43;16.77;;;;;;;1.24;100.00;101576.65;1788436;79;21180;-59
2020/12/20 11:13:24;;;;;;;30.12;16.57;;;;;;;1.25;100.00;101578.29;1786299;79;21057;-65
2020/12/20 11:15:54;;;;;;;26.55;13.55;;;;;;;1.28;100.00;101578.12;1787224;80;21053;-64
2020/12/20 11:18:22;;;;;;;23.77;12.58;;;;;;;1.29;100.00;101580.62;1783989;79;21198;-63
2020/12/20 11:20:50;;;;;;;26.70;13.18;;;;;;;1.31;100.00;101586.94;1779547;79;21953;-63
2020/12/20 11:23:18;;;;;;;25.40;13.08;;;;;;;1.30;100.00;101586.11;1797647;79;21105;-62
2020/12/20 11:25:48;;;;;;;29.42;15.15;;;;;;;1.29;100.00;101584.90;1766463;80;21114;-64
2020/12/20 11:28:16;;;;;;;24.92;13.53;;;;;;;1.30;100.00;101589.97;1769518;80;21140;-60
2020/12/20 11:30:48;;;;;;;32.05;17.70;;;;;;;1.32;100.00;101593.25;1779323;80;21370;-63
2020/12/20 11:33:16;;;;;;;30.48;15.40;;;;;;;1.32;100.00;101589.86;1819428;78;21117;-64